Ocean Voyager — DJFS2 — position and weather

sailwx.info

Track history (hours):
 
Tides and Currents Weather Stations Pressure Air Temp Water Temp Dewpoint Dewpoint Depression Visibility Wind Speed Wind Dir Waves Ship Positions

Ocean Voyager

Last reported at 2018-Apr-24 02:48 UTC. Time now 2018-Apr-24 05:05 UTC.
Position N 60°22' E 019°02'.

Length 107 m; draft 7 m.

Type: Cargo ship. MMSI: 218615000.

Date/timePositionNaut miles runAvg speedWind from/ knotsBaromVisibWave heightAir tempDewpointWater temp
2018-Apr-24 02:48N 60°22' E 019°02'412.3
2018-Apr-24 02:30N 60°18' E 019°01'612.2
2018-Apr-24 02:00N 60°12' E 019°05'612.3
2018-Apr-24 01:31N 60°07' E 019°12'612.2
2018-Apr-24 01:01N 60°03' E 019°20'19911.1
2018-Apr-23 07:02N 56°53' E 017°25'012.4
2018-Apr-23 06:59N 56°53' E 017°24'612.4
2018-Apr-23 06:29N 56°47' E 017°20'612.3
2018-Apr-23 06:00N 56°42' E 017°16'612.4
2018-Apr-23 05:31N 56°36' E 017°12'612.3
2018-Apr-23 05:01N 56°30' E 017°08'612.2
2018-Apr-23 04:31N 56°25' E 017°03'612.2
2018-Apr-23 04:01N 56°19' E 016°59'612.3
2018-Apr-23 03:30N 56°13' E 016°54'612.4
2018-Apr-23 03:01N 56°08' E 016°50'611.7
2018-Apr-23 02:31N 56°03' E 016°43'612.0
2018-Apr-23 02:00N 56°00' E 016°34'612.0
2018-Apr-23 01:31N 55°57' E 016°24'612.0
2018-Apr-23 01:00N 55°54' E 016°15'612.0
2018-Apr-23 00:31N 55°51' E 016°06'612.0
2018-Apr-23 00:01N 55°48' E 015°57'612.0
2018-Apr-22 23:30N 55°45' E 015°48'612.2
2018-Apr-22 23:01N 55°42' E 015°39'612.2
2018-Apr-22 22:31N 55°38' E 015°29'612.1
2018-Apr-22 22:00N 55°35' E 015°20'612.2
2018-Apr-22 21:31N 55°32' E 015°11'612.3
2018-Apr-22 21:00N 55°29' E 015°02'611.9
2018-Apr-22 20:30N 55°26' E 014°53'612.2
2018-Apr-22 20:00N 55°23' E 014°43'611.9
2018-Apr-22 19:30N 55°19' E 014°35'612.2
2018-Apr-22 19:00N 55°15' E 014°28'612.5
2018-Apr-22 18:30N 55°10' E 014°22'612.4
2018-Apr-22 18:00N 55°05' E 014°15'612.4
2018-Apr-22 17:31N 55°00' E 014°08'912.2
2018-Apr-22 16:49N 54°56' E 013°55'3512.1
2018-Apr-22 13:57N 54°43' E 012°59'512.2
2018-Apr-22 13:31N 54°43' E 012°50'611.9
2018-Apr-22 13:01N 54°40' E 012°41'1612.5
2018-Apr-22 11:42N 54°31' E 012°18'512.8
2018-Apr-22 11:19N 54°27' E 012°13'412.0
2018-Apr-22 11:01N 54°25' E 012°08'612.7
2018-Apr-22 10:31N 54°25' E 011°57'713.0
2018-Apr-22 10:01N 54°25' E 011°46'612.8
2018-Apr-22 09:31N 54°27' E 011°36'612.7
2018-Apr-22 09:01N 54°30' E 011°26'612.7
2018-Apr-22 08:31N 54°32' E 011°16'611.9
2018-Apr-22 08:00N 54°34' E 011°06'612.8
2018-Apr-22 07:31N 54°34' E 010°55'1112.5
2018-Apr-22 06:40N 54°33' E 010°37'212.1
2018-Apr-22 06:31N 54°33' E 010°34'712.4
2018-Apr-22 05:56N 54°30' E 010°22'612.1
2018-Apr-22 05:25N 54°26' E 010°14'13 1.7
2018-Apr-21 21:57N 54°21' E 009°53'4 8.1
2018-Apr-21 21:30N 54°22' E 009°47'4 8.1
2018-Apr-21 21:00N 54°19' E 009°43'4 7.4
2018-Apr-21 20:30N 54°16' E 009°38'4 7.8
2018-Apr-21 20:01N 54°13' E 009°35'4 8.3
2018-Apr-21 19:30N 54°11' E 009°29'4 8.2
2018-Apr-21 19:01N 54°09' E 009°22'4 7.9
2018-Apr-21 18:28N 54°05' E 009°19'4 7.7
2018-Apr-21 18:00N 54°02' E 009°18'4 7.9
2018-Apr-21 17:30N 53°58' E 009°16'4 8.3
2018-Apr-21 17:00N 53°55' E 009°11'2 3.7
2018-Apr-21 16:30N 53°54' E 009°09'0 0.3
2018-Apr-21 16:00N 53°54' E 009°09'1 2.5
2018-Apr-21 15:30N 53°53' E 009°07'0 0.1
2018-Apr-21 15:00N 53°53' E 009°07'0 0.0
2018-Apr-21 14:30N 53°53' E 009°07'0 0.0
2018-Apr-21 14:00N 53°53' E 009°07'0 0.1
2018-Apr-21 13:30N 53°53' E 009°07'3 6.0
2018-Apr-21 13:00N 53°52' E 009°02'713.4
2018-Apr-21 12:30N 53°50' E 008°51'612.4
2018-Apr-21 12:00N 53°53' E 008°42'713.0
2018-Apr-21 11:30N 53°58' E 008°34'713.2
2018-Apr-21 11:00N 53°59' E 008°23'713.6
2018-Apr-21 10:30N 53°59' E 008°11'714.1
2018-Apr-21 09:59N 53°57' E 007°59'613.0
2018-Apr-21 09:30N 53°56' E 007°49'712.4
2018-Apr-21 08:58N 53°54' E 007°38'2711.6
2018-Apr-21 06:39N 53°48' E 006°54'311.1
2018-Apr-21 06:26N 53°48' E 006°49'511.2
2018-Apr-21 06:01N 53°47' E 006°42'611.1
2018-Apr-21 05:31N 53°45' E 006°33'611.2
2018-Apr-21 04:56N 53°44' E 006°22'511.3
2018-Apr-21 04:29N 53°42' E 006°14'511.4
2018-Apr-21 04:01N 53°41' E 006°05'611.5
2018-Apr-21 03:31N 53°39' E 005°56'611.6
2018-Apr-21 03:00N 53°37' E 005°47'611.7
2018-Apr-21 02:31N 53°35' E 005°37'611.8
2018-Apr-21 02:01N 53°33' E 005°28'611.8
2018-Apr-21 01:30N 53°31' E 005°18'612.0
2018-Apr-21 01:00N 53°29' E 005°09'612.4
2018-Apr-21 00:30N 53°27' E 004°59'612.5
2018-Apr-21 00:00N 53°25' E 004°50'612.1
2018-Apr-20 23:31N 53°21' E 004°41'612.2
2018-Apr-20 23:00N 53°16' E 004°36'612.5
2018-Apr-20 22:30N 53°10' E 004°32'612.4
2018-Apr-20 22:01N 53°04' E 004°30'612.9
2018-Apr-20 21:30N 52°58' E 004°26'612.9
2018-Apr-20 21:00N 52°52' E 004°23'713.1
2018-Apr-20 20:31N 52°46' E 004°19'713.3
2018-Apr-20 20:01N 52°42' E 004°10'612.8
2018-Apr-20 19:30N 52°38' E 004°02'712.9
2018-Apr-20 18:58N 52°34' E 003°53'613.0
2018-Apr-20 18:31N 52°30' E 003°45'713.2
2018-Apr-20 18:00N 52°25' E 003°38'713.5
2018-Apr-20 17:30N 52°20' E 003°30'713.7
2018-Apr-20 16:57N 52°15' E 003°21'3513.4
2018-Apr-20 14:18N 51°49' E 002°42'412.6
2018-Apr-20 14:00N 51°46' E 002°38'612.3
2018-Apr-20 13:30N 51°41' E 002°32'611.9
2018-Apr-20 13:01N 51°36' E 002°27'611.5
2018-Apr-20 12:30N 51°32' E 002°21'611.2
2018-Apr-20 11:59N 51°27' E 002°16'510.7
2018-Apr-20 11:30N 51°22' E 002°12'510.7
2018-Apr-20 11:01N 51°18' E 002°07'510.2
2018-Apr-20 10:31N 51°14' E 002°02'510.1
2018-Apr-20 10:00N 51°11' E 001°56'510.1
2018-Apr-20 09:31N 51°08' E 001°50'610.1
2018-Apr-20 08:57N 51°04' E 001°43'510.1
2018-Apr-20 08:30N 51°00' E 001°39'610.3
2018-Apr-20 07:53N 50°55' E 001°32'410.8
2018-Apr-20 07:30N 50°52' E 001°29'611.6
2018-Apr-20 07:00N 50°46' E 001°27'712.1
2018-Apr-20 06:26N 50°40' E 001°22'612.0
2018-Apr-20 05:54N 50°36' E 001°14'612.1
2018-Apr-20 05:27N 50°32' E 001°08'512.1
2018-Apr-20 05:01N 50°29' E 001°01'612.0
2018-Apr-20 04:31N 50°26' E 000°53'1712.0
2018-Apr-20 03:06N 50°21' E 000°28'112.1
2018-Apr-20 03:00N 50°21' E 000°26'612.1
2018-Apr-20 02:30N 50°19' E 000°17'612.3
2018-Apr-20 02:01N 50°17' E 000°08'612.9
2018-Apr-20 01:30N 50°16' W 000°02'713.3
2018-Apr-20 01:00N 50°13' W 000°12'714.0
2018-Apr-20 00:30N 50°10' W 000°22'714.7
2018-Apr-20 00:00N 50°07' W 000°32'815.3
2018-Apr-19 23:30N 50°04' W 000°43'815.6
2018-Apr-19 23:00N 50°02' W 000°55'815.7
2018-Apr-19 22:30N 49°59' W 001°06'816.2
2018-Apr-19 22:00N 49°57' W 001°18'816.4
2018-Apr-19 21:30N 49°55' W 001°31'816.4
2018-Apr-19 21:00N 49°53' W 001°43'816.0
2018-Apr-19 20:30N 49°53' W 001°56'714.7
2018-Apr-19 20:00N 49°53' W 002°07'713.5
2018-Apr-19 19:30N 49°52' W 002°17'612.7
2018-Apr-19 19:00N 49°51' W 002°27'612.6
2018-Apr-19 18:30N 49°50' W 002°37'612.2
2018-Apr-19 18:00N 49°48' W 002°46'1711.1
2018-Apr-19 16:27N 49°40' W 003°09'511.0
2018-Apr-19 15:59N 49°37' W 003°16'6110.4
2018-Apr-19 10:05N 49°07' W 004°38'111.3
2018-Apr-19 10:01N 49°06' W 004°39'4911.9
2018-Apr-19 05:53N 48°39' W 005°40'1613.9
2018-Apr-19 04:45N 48°25' W 005°51'314.0
2018-Apr-19 04:30N 48°21' W 005°54'813.9
2018-Apr-19 03:55N 48°14' W 005°60'613.7
2018-Apr-19 03:30N 48°09' W 006°04'54711.7
2018-Apr-17 04:55N 39°27' W 009°49'512.4
2018-Apr-17 04:30N 39°22' W 009°49'612.6
2018-Apr-17 04:00N 39°16' W 009°49'612.4
2018-Apr-17 03:30N 39°10' W 009°49'612.3
2018-Apr-17 03:00N 39°03' W 009°50'612.4
2018-Apr-17 02:30N 38°57' W 009°50'612.4
2018-Apr-17 02:00N 38°51' W 009°50'612.6
2018-Apr-17 01:30N 38°45' W 009°50'612.4
2018-Apr-17 01:00N 38°39' W 009°49'612.2
2018-Apr-17 00:30N 38°32' W 009°48'612.0
2018-Apr-17 00:00N 38°27' W 009°46'611.9
2018-Apr-16 23:30N 38°21' W 009°44'611.9
2018-Apr-16 23:00N 38°15' W 009°43'611.9
2018-Apr-16 22:30N 38°09' W 009°41'611.8
2018-Apr-16 22:00N 38°04' W 009°39'611.9
2018-Apr-16 21:30N 37°58' W 009°37'611.8
2018-Apr-16 20:59N 37°52' W 009°35'811.6
2018-Apr-16 20:17N 37°44' W 009°33'411.5
2018-Apr-16 19:57N 37°40' W 009°32'21110.7
2018-Apr-16 00:13N 35°58' W 005°42'211.1
2018-Apr-16 00:00N 35°58' W 005°39'510.8
2018-Apr-15 23:30N 35°59' W 005°32'510.0
2018-Apr-15 23:00N 36°01' W 005°26'5 9.4
2018-Apr-15 22:30N 36°02' W 005°21'510.1
2018-Apr-15 21:59N 36°04' W 005°14'5 9.3
2018-Apr-15 21:29N 36°05' W 005°09'5 9.9
2018-Apr-15 21:00N 36°05' W 005°03'21110.4
2018-Apr-15 00:39N 37°32' W 001°02'311.6
2018-Apr-15 00:24N 37°34' W 000°60'  
Track history (hours):
 
Tides and Currents Weather Stations Pressure Air Temp Water Temp Dewpoint Dewpoint Depression Visibility Wind Speed Wind Dir Waves Ship Positions

Ocean Voyager

Last reported at 2018-Apr-24 02:48 UTC. Time now 2018-Apr-24 05:05 UTC.
Position N 60°22' E 019°02'.

Length 107 m; draft 7 m.

Type: Cargo ship. MMSI: 218615000.

Date/timePositionNaut miles runAvg speedWind from/ knotsBaromVisibWave heightAir tempDewpointWater temp
2018-Apr-24 02:48N 60°22' E 019°02'412.3
2018-Apr-24 02:30N 60°18' E 019°01'612.2
2018-Apr-24 02:00N 60°12' E 019°05'612.3
2018-Apr-24 01:31N 60°07' E 019°12'612.2
2018-Apr-24 01:01N 60°03' E 019°20'19911.1
2018-Apr-23 07:02N 56°53' E 017°25'012.4
2018-Apr-23 06:59N 56°53' E 017°24'612.4
2018-Apr-23 06:29N 56°47' E 017°20'612.3
2018-Apr-23 06:00N 56°42' E 017°16'612.4
2018-Apr-23 05:31N 56°36' E 017°12'612.3
2018-Apr-23 05:01N 56°30' E 017°08'612.2
2018-Apr-23 04:31N 56°25' E 017°03'612.2
2018-Apr-23 04:01N 56°19' E 016°59'612.3
2018-Apr-23 03:30N 56°13' E 016°54'612.4
2018-Apr-23 03:01N 56°08' E 016°50'611.7
2018-Apr-23 02:31N 56°03' E 016°43'612.0
2018-Apr-23 02:00N 56°00' E 016°34'612.0
2018-Apr-23 01:31N 55°57' E 016°24'612.0
2018-Apr-23 01:00N 55°54' E 016°15'612.0
2018-Apr-23 00:31N 55°51' E 016°06'612.0
2018-Apr-23 00:01N 55°48' E 015°57'612.0
2018-Apr-22 23:30N 55°45' E 015°48'612.2
2018-Apr-22 23:01N 55°42' E 015°39'612.2
2018-Apr-22 22:31N 55°38' E 015°29'612.1
2018-Apr-22 22:00N 55°35' E 015°20'612.2
2018-Apr-22 21:31N 55°32' E 015°11'612.3
2018-Apr-22 21:00N 55°29' E 015°02'611.9
2018-Apr-22 20:30N 55°26' E 014°53'612.2
2018-Apr-22 20:00N 55°23' E 014°43'611.9
2018-Apr-22 19:30N 55°19' E 014°35'612.2
2018-Apr-22 19:00N 55°15' E 014°28'612.5
2018-Apr-22 18:30N 55°10' E 014°22'612.4
2018-Apr-22 18:00N 55°05' E 014°15'612.4
2018-Apr-22 17:31N 55°00' E 014°08'912.2
2018-Apr-22 16:49N 54°56' E 013°55'3512.1
2018-Apr-22 13:57N 54°43' E 012°59'512.2
2018-Apr-22 13:31N 54°43' E 012°50'611.9
2018-Apr-22 13:01N 54°40' E 012°41'1612.5
2018-Apr-22 11:42N 54°31' E 012°18'512.8
2018-Apr-22 11:19N 54°27' E 012°13'412.0
2018-Apr-22 11:01N 54°25' E 012°08'612.7
2018-Apr-22 10:31N 54°25' E 011°57'713.0
2018-Apr-22 10:01N 54°25' E 011°46'612.8
2018-Apr-22 09:31N 54°27' E 011°36'612.7
2018-Apr-22 09:01N 54°30' E 011°26'612.7
2018-Apr-22 08:31N 54°32' E 011°16'611.9
2018-Apr-22 08:00N 54°34' E 011°06'612.8
2018-Apr-22 07:31N 54°34' E 010°55'1112.5
2018-Apr-22 06:40N 54°33' E 010°37'212.1
2018-Apr-22 06:31N 54°33' E 010°34'712.4
2018-Apr-22 05:56N 54°30' E 010°22'612.1
2018-Apr-22 05:25N 54°26' E 010°14'13 1.7
2018-Apr-21 21:57N 54°21' E 009°53'4 8.1
2018-Apr-21 21:30N 54°22' E 009°47'4 8.1
2018-Apr-21 21:00N 54°19' E 009°43'4 7.4
2018-Apr-21 20:30N 54°16' E 009°38'4 7.8
2018-Apr-21 20:01N 54°13' E 009°35'4 8.3
2018-Apr-21 19:30N 54°11' E 009°29'4 8.2
2018-Apr-21 19:01N 54°09' E 009°22'4 7.9
2018-Apr-21 18:28N 54°05' E 009°19'4 7.7
2018-Apr-21 18:00N 54°02' E 009°18'4 7.9
2018-Apr-21 17:30N 53°58' E 009°16'4 8.3
2018-Apr-21 17:00N 53°55' E 009°11'2 3.7
2018-Apr-21 16:30N 53°54' E 009°09'0 0.3
2018-Apr-21 16:00N 53°54' E 009°09'1 2.5
2018-Apr-21 15:30N 53°53' E 009°07'0 0.1
2018-Apr-21 15:00N 53°53' E 009°07'0 0.0
2018-Apr-21 14:30N 53°53' E 009°07'0 0.0
2018-Apr-21 14:00N 53°53' E 009°07'0 0.1
2018-Apr-21 13:30N 53°53' E 009°07'3 6.0
2018-Apr-21 13:00N 53°52' E 009°02'713.4
2018-Apr-21 12:30N 53°50' E 008°51'612.4
2018-Apr-21 12:00N 53°53' E 008°42'713.0
2018-Apr-21 11:30N 53°58' E 008°34'713.2
2018-Apr-21 11:00N 53°59' E 008°23'713.6
2018-Apr-21 10:30N 53°59' E 008°11'714.1
2018-Apr-21 09:59N 53°57' E 007°59'613.0
2018-Apr-21 09:30N 53°56' E 007°49'712.4
2018-Apr-21 08:58N 53°54' E 007°38'2711.6
2018-Apr-21 06:39N 53°48' E 006°54'311.1
2018-Apr-21 06:26N 53°48' E 006°49'511.2
2018-Apr-21 06:01N 53°47' E 006°42'611.1
2018-Apr-21 05:31N 53°45' E 006°33'611.2
2018-Apr-21 04:56N 53°44' E 006°22'511.3
2018-Apr-21 04:29N 53°42' E 006°14'511.4
2018-Apr-21 04:01N 53°41' E 006°05'611.5
2018-Apr-21 03:31N 53°39' E 005°56'611.6
2018-Apr-21 03:00N 53°37' E 005°47'611.7
2018-Apr-21 02:31N 53°35' E 005°37'611.8
2018-Apr-21 02:01N 53°33' E 005°28'611.8
2018-Apr-21 01:30N 53°31' E 005°18'612.0
2018-Apr-21 01:00N 53°29' E 005°09'612.4
2018-Apr-21 00:30N 53°27' E 004°59'612.5
2018-Apr-21 00:00N 53°25' E 004°50'612.1
2018-Apr-20 23:31N 53°21' E 004°41'612.2
2018-Apr-20 23:00N 53°16' E 004°36'612.5
2018-Apr-20 22:30N 53°10' E 004°32'612.4
2018-Apr-20 22:01N 53°04' E 004°30'612.9
2018-Apr-20 21:30N 52°58' E 004°26'612.9
2018-Apr-20 21:00N 52°52' E 004°23'713.1
2018-Apr-20 20:31N 52°46' E 004°19'713.3
2018-Apr-20 20:01N 52°42' E 004°10'612.8
2018-Apr-20 19:30N 52°38' E 004°02'712.9
2018-Apr-20 18:58N 52°34' E 003°53'613.0
2018-Apr-20 18:31N 52°30' E 003°45'713.2
2018-Apr-20 18:00N 52°25' E 003°38'713.5
2018-Apr-20 17:30N 52°20' E 003°30'713.7
2018-Apr-20 16:57N 52°15' E 003°21'3513.4
2018-Apr-20 14:18N 51°49' E 002°42'412.6
2018-Apr-20 14:00N 51°46' E 002°38'612.3
2018-Apr-20 13:30N 51°41' E 002°32'611.9
2018-Apr-20 13:01N 51°36' E 002°27'611.5
2018-Apr-20 12:30N 51°32' E 002°21'611.2
2018-Apr-20 11:59N 51°27' E 002°16'510.7
2018-Apr-20 11:30N 51°22' E 002°12'510.7
2018-Apr-20 11:01N 51°18' E 002°07'510.2
2018-Apr-20 10:31N 51°14' E 002°02'510.1
2018-Apr-20 10:00N 51°11' E 001°56'510.1
2018-Apr-20 09:31N 51°08' E 001°50'610.1
2018-Apr-20 08:57N 51°04' E 001°43'510.1
2018-Apr-20 08:30N 51°00' E 001°39'610.3
2018-Apr-20 07:53N 50°55' E 001°32'410.8
2018-Apr-20 07:30N 50°52' E 001°29'611.6
2018-Apr-20 07:00N 50°46' E 001°27'712.1
2018-Apr-20 06:26N 50°40' E 001°22'612.0
2018-Apr-20 05:54N 50°36' E 001°14'612.1
2018-Apr-20 05:27N 50°32' E 001°08'512.1
2018-Apr-20 05:01N 50°29' E 001°01'612.0
2018-Apr-20 04:31N 50°26' E 000°53'1712.0
2018-Apr-20 03:06N 50°21' E 000°28'112.1
2018-Apr-20 03:00N 50°21' E 000°26'612.1
2018-Apr-20 02:30N 50°19' E 000°17'612.3
2018-Apr-20 02:01N 50°17' E 000°08'612.9
2018-Apr-20 01:30N 50°16' W 000°02'713.3
2018-Apr-20 01:00N 50°13' W 000°12'714.0
2018-Apr-20 00:30N 50°10' W 000°22'714.7
2018-Apr-20 00:00N 50°07' W 000°32'815.3
2018-Apr-19 23:30N 50°04' W 000°43'815.6
2018-Apr-19 23:00N 50°02' W 000°55'815.7
2018-Apr-19 22:30N 49°59' W 001°06'816.2
2018-Apr-19 22:00N 49°57' W 001°18'816.4
2018-Apr-19 21:30N 49°55' W 001°31'816.4
2018-Apr-19 21:00N 49°53' W 001°43'816.0
2018-Apr-19 20:30N 49°53' W 001°56'714.7
2018-Apr-19 20:00N 49°53' W 002°07'713.5
2018-Apr-19 19:30N 49°52' W 002°17'612.7
2018-Apr-19 19:00N 49°51' W 002°27'612.6
2018-Apr-19 18:30N 49°50' W 002°37'612.2
2018-Apr-19 18:00N 49°48' W 002°46'1711.1
2018-Apr-19 16:27N 49°40' W 003°09'511.0
2018-Apr-19 15:59N 49°37' W 003°16'6110.4
2018-Apr-19 10:05N 49°07' W 004°38'111.3
2018-Apr-19 10:01N 49°06' W 004°39'4911.9
2018-Apr-19 05:53N 48°39' W 005°40'1613.9
2018-Apr-19 04:45N 48°25' W 005°51'314.0
2018-Apr-19 04:30N 48°21' W 005°54'813.9
2018-Apr-19 03:55N 48°14' W 005°60'613.7
2018-Apr-19 03:30N 48°09' W 006°04'54711.7
2018-Apr-17 04:55N 39°27' W 009°49'512.4
2018-Apr-17 04:30N 39°22' W 009°49'612.6
2018-Apr-17 04:00N 39°16' W 009°49'612.4
2018-Apr-17 03:30N 39°10' W 009°49'612.3
2018-Apr-17 03:00N 39°03' W 009°50'612.4
2018-Apr-17 02:30N 38°57' W 009°50'612.4
2018-Apr-17 02:00N 38°51' W 009°50'612.6
2018-Apr-17 01:30N 38°45' W 009°50'612.4
2018-Apr-17 01:00N 38°39' W 009°49'612.2
2018-Apr-17 00:30N 38°32' W 009°48'612.0
2018-Apr-17 00:00N 38°27' W 009°46'611.9
2018-Apr-16 23:30N 38°21' W 009°44'611.9
2018-Apr-16 23:00N 38°15' W 009°43'611.9
2018-Apr-16 22:30N 38°09' W 009°41'611.8
2018-Apr-16 22:00N 38°04' W 009°39'611.9
2018-Apr-16 21:30N 37°58' W 009°37'611.8
2018-Apr-16 20:59N 37°52' W 009°35'811.6
2018-Apr-16 20:17N 37°44' W 009°33'411.5
2018-Apr-16 19:57N 37°40' W 009°32'21110.7
2018-Apr-16 00:13N 35°58' W 005°42'211.1
2018-Apr-16 00:00N 35°58' W 005°39'510.8
2018-Apr-15 23:30N 35°59' W 005°32'510.0
2018-Apr-15 23:00N 36°01' W 005°26'5 9.4
2018-Apr-15 22:30N 36°02' W 005°21'510.1
2018-Apr-15 21:59N 36°04' W 005°14'5 9.3
2018-Apr-15 21:29N 36°05' W 005°09'5 9.9
2018-Apr-15 21:00N 36°05' W 005°03'21110.4
2018-Apr-15 00:39N 37°32' W 001°02'311.6
2018-Apr-15 00:24N 37°34' W 000°60'  

Dump ship's entire track history